Etusivu
METAR-TAF:

METAR-TAF

Lentoasemat :

Chongqing Jiangbein kansainvälinen lentoasema

Chongqing, Kiina

Leveyspiiri: 29-31N, Pituuspiiri: 106-29E, korkeus merenpinnasta: 351 m

Tämänhetkinen sää

Tämä raportti tehtiin 1 tunti ja 1 minuuttia sitten, kello 16.00 UTC
Tuuli 4 kn pohjoisesta
Lämpötila 16°C
Kosteus 94%
Ilmanpaine 1016 hPa
Näkyvyys: 4000 m
utua

METAR: ZUCK 211600Z 36002MPS 4000 BR NSC 16/15 Q1016 NOSIG

Aika: 01:01 (17:01 UTC)

Sääennuste

Tämä raportti tehtiin 7 tuntia ja 56 minuuttia sitten, kello 09.05 UTC
Ennuste voimassa 21. päivästä klo 12 UTC - 22. päivään klo 12 UTC
Tuuli 4 kn idästä/kaakosta
Näkyvyys: 3500 m
Hajanaisia pilviä 3000 ft:n korkeudessa
utua

TAF: ZUCK 210905Z 2112/2212 12002MPS 3500 BR SCT030 TX24/2208Z TN16/2121Z

Säähavainnot ja -ennusteet yli 4000 lentoasemalta (METAR- ja TAF-raportit).

Käytössä olevat sääasemat on merkitty karttaan keltaisilla ja punaisilla pisteillä.

Aseta hiiri pisteen päälle nähdäksesi sääaseman nimen.

Klikkaa sitten nähdäksesi säähavainnot ja -ennusteet.

Kartan vaihtaminen: klikkaa mustalla rastilla varustettuja vihreitä pisteitä, niin voit zoomata sisään; viivalla varustettua vihreää pistettä, niin voit zoomata ulos tai vihreitä nuolia, niin pääset viereisille kartoille.


METAR-TAF: